Time;durP1;ratioP1;P1;durP2;ratioP2;P2;SDS_P1;SDS_P2;PMS_P1;PMS_P2;Temp;Humidity;BMP_temperature;BMP_pressure;BME280_temperature;BME280_humidity;BME280_pressure;Samples;Min_cycle;Max_cycle;Signal;HPM_P1;HPM_P2
2022/10/01 00:00:32;;;;;;;33.33;28.20;;;;;;;;;;5116667;27;20062;-72
2022/10/01 00:02:58;;;;;;;35.28;25.27;;;;;;;;;;5099652;27;20418;-73
2022/10/01 00:05:23;;;;;;;38.28;26.20;;;;;;;;;;5114103;27;20031;-73
2022/10/01 00:07:49;;;;;;;25.15;19.45;;;;;;;;;;5116655;27;20039;-74
2022/10/01 00:10:15;;;;;;;10.77;8.55;;;;;;;;;;5111031;27;20102;-73
2022/10/01 00:12:44;;;;;;;8.95;7.70;;;;;;;;;;5109185;27;20036;-73
2022/10/01 00:15:10;;;;;;;10.00;7.15;;;;;;;;;;5115919;27;20452;-72
2022/10/01 00:17:36;;;;;;;12.02;7.25;;;;;;;;;;5093454;27;20032;-78
2022/10/01 00:20:02;;;;;;;7.85;6.90;;;;;;;;;;5110206;27;20093;-73
2022/10/01 00:22:31;;;;;;;6.20;5.55;;;;;;;;;;5116378;27;20031;-72
2022/10/01 00:24:58;;;;;;;6.10;5.50;;;;;;;;;;5113502;27;20029;-75
2022/10/01 00:27:23;;;;;;;9.05;6.55;;;;;;;;;;5101713;27;20051;-71
2022/10/01 00:29:49;;;;;;;9.60;7.25;;;;;;;;;;5114795;27;20112;-72
2022/10/01 00:32:14;;;;;;;9.45;6.90;;;;;;;;;;5112494;27;20362;-75
2022/10/01 00:34:40;;;;;;;11.55;7.15;;;;;;;;;;5108951;27;20347;-71
2022/10/01 00:37:05;;;;;;;11.70;8.38;;;;;;;;;;5117003;27;20472;-77
2022/10/01 00:39:30;;;;;;;20.05;11.95;;;;;;;;;;5108803;27;20084;-75
2022/10/01 00:41:56;;;;;;;22.50;13.80;;;;;;;;;;5107184;27;20031;-72
2022/10/01 00:44:24;;;;;;;17.55;12.57;;;;;;;;;;5115778;27;20077;-71
2022/10/01 00:46:50;;;;;;;13.70;10.57;;;;;;;;;;5110875;27;20055;-76
2022/10/01 00:49:18;;;;;;;15.40;11.35;;;;;;;;;;5111719;27;20084;-77
2022/10/01 00:51:48;;;;;;;13.93;10.02;;;;;;;;;;5103437;27;20052;-72
2022/10/01 00:54:13;;;;;;;;;;;;;;;;;;5109267;27;20019;-72
2022/10/01 00:56:39;;;;;;;17.60;14.10;;;;;;;;;;5110680;27;19911;-72
2022/10/01 00:59:05;;;;;;;17.65;11.90;;;;;;;;;;5114270;27;20459;-72
2022/10/01 01:01:31;;;;;;;17.10;11.68;;;;;;;;;;5116101;27;20032;-76
2022/10/01 01:03:57;;;;;;;17.83;12.88;;;;;;;;;;5099617;27;20019;-74
2022/10/01 01:06:22;;;;;;;15.60;11.48;;;;;;;;;;5092816;27;20378;-72
2022/10/01 01:08:53;;;;;;;13.82;10.52;;;;;;;;;;5113000;27;20027;-75
2022/10/01 01:11:39;;;;;;;13.45;10.85;;;;;;;;;;5110877;27;20106;-72
2022/10/01 01:14:07;;;;;;;13.30;8.32;;;;;;;;;;5112536;27;20075;-75
2022/10/01 01:16:37;;;;;;;8.45;7.55;;;;;;;;;;5113936;27;20217;-76
2022/10/01 01:19:11;;;;;;;9.23;7.38;;;;;;;;;;5108850;27;20023;-73
2022/10/01 01:21:50;;;;;;;10.85;7.75;;;;;;;;;;5111133;27;20027;-72
2022/10/01 01:24:28;;;;;;;11.02;7.78;;;;;;;;;;5106157;27;20050;-73
2022/10/01 01:26:54;;;;;;;9.52;7.90;;;;;;;;;;5107528;27;20043;-73
2022/10/01 01:29:23;;;;;;;8.25;6.40;;;;;;;;;;5115549;27;20027;-72
2022/10/01 01:31:48;;;;;;;7.78;6.75;;;;;;;;;;5113327;27;20110;-72
2022/10/01 01:34:18;;;;;;;9.85;7.32;;;;;;;;;;5094719;27;20138;-75
2022/10/01 01:36:46;;;;;;;12.32;9.55;;;;;;;;;;5111964;27;20034;-75
2022/10/01 01:39:13;;;;;;;16.92;10.25;;;;;;;;;;5115076;27;21103;-72
2022/10/01 01:41:41;;;;;;;9.88;8.88;;;;;;;;;;5114060;27;20028;-75
2022/10/01 01:44:09;;;;;;;12.23;9.60;;;;;;;;;;5094349;28;20111;-72
2022/10/01 01:46:37;;;;;;;15.00;8.18;;;;;;;;;;5108361;27;20055;-71
2022/10/01 01:49:04;;;;;;;8.07;6.10;;;;;;;;;;5110453;27;21208;-73
2022/10/01 01:51:56;;;;;;;8.68;5.90;;;;;;;;;;5114690;27;20047;-72
2022/10/01 01:54:21;;;;;;;5.88;5.25;;;;;;;;;;5104904;27;20035;-73
2022/10/01 01:56:48;;;;;;;8.20;5.13;;;;;;;;;;5112370;27;20365;-72
2022/10/01 01:59:15;;;;;;;7.63;6.05;;;;;;;;;;5110892;27;20054;-72
2022/10/01 02:01:41;;;;;;;9.23;5.55;;;;;;;;;;5075615;27;20023;-76
2022/10/01 02:04:15;;;;;;;5.25;4.70;;;;;;;;;;5106509;27;20457;-72
2022/10/01 02:07:06;;;;;;;6.28;4.65;;;;;;;;;;5106243;27;20028;-72
2022/10/01 02:09:35;;;;;;;6.45;4.60;;;;;;;;;;5098538;27;20083;-72
2022/10/01 02:12:06;;;;;;;6.73;5.33;;;;;;;;;;5113411;27;20102;-72
2022/10/01 02:14:37;;;;;;;10.18;5.50;;;;;;;;;;5097612;28;20119;-75
2022/10/01 02:17:23;;;;;;;7.05;5.25;;;;;;;;;;5109210;27;20034;-72
2022/10/01 02:20:05;;;;;;;8.85;6.07;;;;;;;;;;5098081;27;20035;-71
2022/10/01 02:22:44;;;;;;;15.55;9.23;;;;;;;;;;5113548;27;20031;-72
2022/10/01 02:25:10;;;;;;;11.13;8.03;;;;;;;;;;5108815;27;20378;-74
2022/10/01 02:27:38;;;;;;;12.75;8.50;;;;;;;;;;5086209;27;20299;-77
2022/10/01 02:30:08;;;;;;;16.50;11.02;;;;;;;;;;5086322;28;20026;-71
2022/10/01 02:32:34;;;;;;;18.67;13.00;;;;;;;;;;5114758;27;20269;-73
2022/10/01 02:35:00;;;;;;;14.45;10.23;;;;;;;;;;5093838;27;20155;-72
2022/10/01 02:37:26;;;;;;;10.98;8.98;;;;;;;;;;5108578;27;20126;-71
2022/10/01 02:39:53;;;;;;;8.07;6.72;;;;;;;;;;5108746;27;20028;-73
2022/10/01 02:42:20;;;;;;;9.13;6.45;;;;;;;;;;5113161;27;20023;-72
2022/10/01 02:44:47;;;;;;;7.13;6.18;;;;;;;;;;5111274;27;20086;-72
2022/10/01 02:47:45;;;;;;;9.60;5.80;;;;;;;;;;5111768;27;20027;-76
2022/10/01 02:50:11;;;;;;;6.70;5.93;;;;;;;;;;5018683;28;20037;-72
2022/10/01 02:52:41;;;;;;;9.80;6.55;;;;;;;;;;5020176;28;20099;-73
2022/10/01 02:55:12;;;;;;;10.10;7.32;;;;;;;;;;5020794;28;20408;-72
2022/10/01 02:57:37;;;;;;;8.82;7.65;;;;;;;;;;5019716;28;20034;-73
2022/10/01 03:00:07;;;;;;;12.10;8.43;;;;;;;;;;5019286;28;20044;-72
2022/10/01 03:02:32;;;;;;;;;;;;;;;;;;5020669;28;20037;-72
2022/10/01 03:04:58;;;;;;;11.40;8.60;;;;;;;;;;5020065;28;19912;-72
2022/10/01 03:07:25;;;;;;;13.13;10.30;;;;;;;;;;5019339;28;20054;-72
2022/10/01 03:09:50;;;;;;;13.40;10.25;;;;;;;;;;5019863;28;20029;-73
2022/10/01 03:12:16;;;;;;;9.98;8.90;;;;;;;;;;5016333;28;21306;-74
2022/10/01 03:14:42;;;;;;;12.90;8.95;;;;;;;;;;5012421;28;20116;-73
2022/10/01 03:17:08;;;;;;;10.57;7.95;;;;;;;;;;5019934;28;20029;-72
2022/10/01 03:19:33;;;;;;;12.25;9.07;;;;;;;;;;5021448;28;20041;-72
2022/10/01 03:21:59;;;;;;;7.70;6.85;;;;;;;;;;5020395;28;20072;-73
2022/10/01 03:24:24;;;;;;;13.20;10.13;;;;;;;;;;4996752;28;20053;-74
2022/10/01 03:26:50;;;;;;;20.98;12.52;;;;;;;;;;5104802;27;20127;-72
2022/10/01 03:29:15;;;;;;;18.30;12.15;;;;;;;;;;5091603;27;20094;-73
2022/10/01 03:31:40;;;;;;;18.55;13.35;;;;;;;;;;5115683;27;20031;-74
2022/10/01 03:34:06;;;;;;;14.00;11.40;;;;;;;;;;5115368;27;20024;-72
2022/10/01 03:36:31;;;;;;;11.63;9.65;;;;;;;;;;5114674;27;20769;-73
2022/10/01 03:38:56;;;;;;;9.88;8.25;;;;;;;;;;5115681;27;20035;-72
2022/10/01 03:41:22;;;;;;;7.95;6.72;;;;;;;;;;5115456;27;20423;-73
2022/10/01 03:43:47;;;;;;;14.60;9.77;;;;;;;;;;5113131;27;20427;-72
2022/10/01 03:46:12;;;;;;;17.88;14.60;;;;;;;;;;5113226;27;20051;-74
2022/10/01 03:48:38;;;;;;;15.60;12.25;;;;;;;;;;5096995;27;20083;-72
2022/10/01 03:51:03;;;;;;;12.73;9.93;;;;;;;;;;5111534;27;20020;-76
2022/10/01 03:53:30;;;;;;;12.60;9.57;;;;;;;;;;5113654;27;20027;-73
2022/10/01 03:55:56;;;;;;;12.10;8.50;;;;;;;;;;5113618;27;20087;-72
2022/10/01 03:58:22;;;;;;;9.02;6.68;;;;;;;;;;5112299;27;20031;-76
2022/10/01 04:00:48;;;;;;;10.50;7.18;;;;;;;;;;5114495;27;20111;-72
2022/10/01 04:03:14;;;;;;;8.27;7.03;;;;;;;;;;5114084;27;20416;-78
2022/10/01 04:05:40;;;;;;;16.55;11.07;;;;;;;;;;5099174;27;20080;-74
2022/10/01 04:08:05;;;;;;;10.32;6.43;;;;;;;;;;5116053;27;20110;-72
2022/10/01 04:10:30;;;;;;;7.00;5.05;;;;;;;;;;5112628;27;20114;-73
2022/10/01 04:12:56;;;;;;;9.35;5.07;;;;;;;;;;5117605;27;20035;-72
2022/10/01 04:15:21;;;;;;;8.25;6.25;;;;;;;;;;5097262;27;20023;-73
2022/10/01 04:17:47;;;;;;;10.13;6.30;;;;;;;;;;5111550;27;20028;-73
2022/10/01 04:20:13;;;;;;;10.98;7.53;;;;;;;;;;5099975;27;20035;-73
2022/10/01 04:22:41;;;;;;;7.68;6.88;;;;;;;;;;5101293;27;20044;-75
2022/10/01 04:25:09;;;;;;;9.10;6.35;;;;;;;;;;5101999;27;20037;-73
2022/10/01 04:27:35;;;;;;;9.75;8.23;;;;;;;;;;5099473;27;20031;-73
2022/10/01 04:30:00;;;;;;;7.55;6.75;;;;;;;;;;5078601;27;20480;-73
2022/10/01 04:32:26;;;;;;;9.85;7.40;;;;;;;;;;5097951;27;20500;-72
2022/10/01 04:34:51;;;;;;;14.52;10.88;;;;;;;;;;5098812;27;20019;-74
2022/10/01 04:37:17;;;;;;;11.50;10.25;;;;;;;;;;5101820;27;20142;-72
2022/10/01 04:39:42;;;;;;;9.95;8.80;;;;;;;;;;5116443;27;20027;-76
2022/10/01 04:42:07;;;;;;;21.77;17.88;;;;;;;;;;5111968;27;20031;-73
2022/10/01 04:44:33;;;;;;;104.85;75.65;;;;;;;;;;5107919;27;20501;-72
2022/10/01 04:46:58;;;;;;;101.03;71.13;;;;;;;;;;5114396;27;20027;-76
2022/10/01 04:49:24;;;;;;;285.90;155.30;;;;;;;;;;5115093;27;20031;-73
2022/10/01 04:51:49;;;;;;;64.07;37.60;;;;;;;;;;5113435;27;20606;-74
2022/10/01 04:54:14;;;;;;;52.63;33.97;;;;;;;;;;5110522;27;20038;-74
2022/10/01 04:56:40;;;;;;;71.32;57.65;;;;;;;;;;5115084;27;20106;-72
2022/10/01 04:59:05;;;;;;;80.97;69.15;;;;;;;;;;5105885;27;20023;-72
2022/10/01 05:01:31;;;;;;;64.70;53.97;;;;;;;;;;5111105;27;20027;-72
2022/10/01 05:03:56;;;;;;;41.50;31.65;;;;;;;;;;5111523;27;20031;-72
2022/10/01 05:06:22;;;;;;;79.10;42.15;;;;;;;;;;5113699;27;20160;-74
2022/10/01 05:08:48;;;;;;;24.73;16.25;;;;;;;;;;5106017;27;20027;-75
2022/10/01 05:11:13;;;;;;;14.07;9.98;;;;;;;;;;5114301;27;20023;-75
2022/10/01 05:13:39;;;;;;;31.73;19.38;;;;;;;;;;5084355;27;20346;-77
2022/10/01 05:16:04;;;;;;;32.97;21.17;;;;;;;;;;5104353;27;20054;-74
2022/10/01 05:18:31;;;;;;;22.70;14.93;;;;;;;;;;5082469;27;20498;-74
2022/10/01 05:20:56;;;;;;;35.08;21.20;;;;;;;;;;5102048;27;20046;-77
2022/10/01 05:23:22;;;;;;;26.80;17.65;;;;;;;;;;5106499;27;20438;-74
2022/10/01 05:25:47;;;;;;;21.75;15.52;;;;;;;;;;5107162;27;20023;-77
2022/10/01 05:28:12;;;;;;;51.88;38.72;;;;;;;;;;5098134;27;20034;-75
2022/10/01 05:30:38;;;;;;;53.80;43.05;;;;;;;;;;5099385;27;20371;-73
2022/10/01 05:33:03;;;;;;;30.95;24.83;;;;;;;;;;5098290;27;20031;-72
2022/10/01 05:35:29;;;;;;;45.05;35.78;;;;;;;;;;5107978;27;20514;-71
2022/10/01 05:37:58;;;;;;;34.13;26.95;;;;;;;;;;5100796;27;20019;-71
2022/10/01 05:40:26;;;;;;;34.63;27.35;;;;;;;;;;5098102;27;20042;-74
2022/10/01 05:42:51;;;;;;;28.88;20.52;;;;;;;;;;5109365;27;20036;-77
2022/10/01 05:45:19;;;;;;;125.10;85.47;;;;;;;;;;5103847;27;20043;-74
2022/10/01 05:47:46;;;;;;;29.33;20.75;;;;;;;;;;5101037;27;20556;-79
2022/10/01 05:50:13;;;;;;;18.88;15.98;;;;;;;;;;5110531;27;20011;-72
2022/10/01 05:52:39;;;;;;;35.58;27.75;;;;;;;;;;5113775;27;20015;-77
2022/10/01 05:55:05;;;;;;;14.52;12.98;;;;;;;;;;5115633;27;20665;-72
2022/10/01 05:57:30;;;;;;;12.57;11.27;;;;;;;;;;5104433;27;20035;-72
2022/10/01 05:59:56;;;;;;;12.25;10.98;;;;;;;;;;5103469;27;20051;-73
2022/10/01 06:02:22;;;;;;;20.60;18.38;;;;;;;;;;5100550;27;20028;-75
2022/10/01 06:04:47;;;;;;;14.90;9.18;;;;;;;;;;5106410;27;20195;-77
2022/10/01 06:07:12;;;;;;;7.68;6.88;;;;;;;;;;5098764;27;20040;-74
2022/10/01 06:09:38;;;;;;;8.77;6.95;;;;;;;;;;5088901;27;20031;-74
2022/10/01 06:12:04;;;;;;;15.68;9.55;;;;;;;;;;5104920;27;20925;-75
2022/10/01 06:14:29;;;;;;;16.92;14.70;;;;;;;;;;5104938;27;20027;-73
2022/10/01 06:16:55;;;;;;;39.97;33.92;;;;;;;;;;5110273;27;20095;-73
2022/10/01 06:19:20;;;;;;;39.47;32.70;;;;;;;;;;5104706;27;20430;-72
2022/10/01 06:21:45;;;;;;;29.98;21.80;;;;;;;;;;5099869;27;20330;-72
2022/10/01 06:24:11;;;;;;;33.17;26.10;;;;;;;;;;5096530;27;20453;-72
2022/10/01 06:26:36;;;;;;;29.98;24.42;;;;;;;;;;5097327;27;20090;-77
2022/10/01 06:29:02;;;;;;;20.40;17.00;;;;;;;;;;5097915;27;20036;-73
2022/10/01 06:31:28;;;;;;;10.63;8.38;;;;;;;;;;5095647;27;20023;-75
2022/10/01 06:33:53;;;;;;;7.55;6.68;;;;;;;;;;5082840;28;20050;-76
2022/10/01 06:36:18;;;;;;;9.38;6.72;;;;;;;;;;5111411;27;20415;-77
2022/10/01 06:38:46;;;;;;;7.43;6.43;;;;;;;;;;5099682;27;20028;-75
2022/10/01 06:41:12;;;;;;;12.82;5.93;;;;;;;;;;5093425;27;20476;-76
2022/10/01 06:43:38;;;;;;;8.55;5.70;;;;;;;;;;5099321;27;20029;-77
2022/10/01 06:46:04;;;;;;;8.93;5.68;;;;;;;;;;5101106;27;20046;-75
2022/10/01 06:48:31;;;;;;;7.70;6.10;;;;;;;;;;5100242;27;20023;-75
2022/10/01 06:50:57;;;;;;;12.18;8.88;;;;;;;;;;5096996;27;20027;-78
2022/10/01 06:53:22;;;;;;;13.85;11.60;;;;;;;;;;5083079;28;20031;-80
2022/10/01 06:55:48;;;;;;;24.85;16.60;;;;;;;;;;5075890;28;20066;-78
2022/10/01 06:58:14;;;;;;;18.33;13.27;;;;;;;;;;5095111;27;20612;-76
2022/10/01 07:00:39;;;;;;;12.48;9.55;;;;;;;;;;5099589;28;20454;-71
2022/10/01 07:03:09;;;;;;;13.45;12.00;;;;;;;;;;5107700;28;20027;-74
2022/10/01 07:05:35;;;;;;;10.88;9.77;;;;;;;;;;5111555;28;20024;-82
2022/10/01 07:08:00;;;;;;;22.75;13.90;;;;;;;;;;5114902;28;20398;-77
2022/10/01 07:10:26;;;;;;;28.83;19.88;;;;;;;;;;5105593;28;20383;-78
2022/10/01 07:12:51;;;;;;;42.42;29.20;;;;;;;;;;5083573;28;20042;-81
2022/10/01 07:15:18;;;;;;;27.60;23.13;;;;;;;;;;5100046;28;20114;-80
2022/10/01 07:17:50;;;;;;;48.08;33.95;;;;;;;;;;5103074;28;20035;-78
2022/10/01 07:20:16;;;;;;;19.08;14.95;;;;;;;;;;5115723;28;20054;-76
2022/10/01 07:22:42;;;;;;;32.38;19.10;;;;;;;;;;5114234;28;20083;-75
2022/10/01 07:25:07;;;;;;;49.10;30.00;;;;;;;;;;5113174;28;20106;-78
2022/10/01 07:27:33;;;;;;;31.85;20.67;;;;;;;;;;5112463;28;20085;-76
2022/10/01 07:29:58;;;;;;;16.98;12.38;;;;;;;;;;5113800;28;20095;-79
2022/10/01 07:32:24;;;;;;;13.35;8.23;;;;;;;;;;5113758;28;20031;-76
2022/10/01 07:34:50;;;;;;;11.25;9.60;;;;;;;;;;5112010;28;20027;-77
2022/10/01 07:37:15;;;;;;;14.75;13.13;;;;;;;;;;5114438;28;20023;-81
2022/10/01 07:39:40;;;;;;;9.60;7.07;;;;;;;;;;5111436;28;20016;-78
2022/10/01 07:42:06;;;;;;;25.52;17.92;;;;;;;;;;5111323;28;20037;-79
2022/10/01 07:44:32;;;;;;;34.80;23.50;;;;;;;;;;5105566;28;20067;-76
2022/10/01 07:46:57;;;;;;;17.38;11.85;;;;;;;;;;5110110;28;20031;-80
2022/10/01 07:49:24;;;;;;;13.38;10.75;;;;;;;;;;5115071;28;20061;-77
2022/10/01 07:51:49;;;;;;;14.80;10.57;;;;;;;;;;5116407;28;20070;-76
2022/10/01 07:54:15;;;;;;;7.00;5.57;;;;;;;;;;5107861;28;20092;-75
2022/10/01 07:56:40;;;;;;;13.25;8.10;;;;;;;;;;5106258;28;20452;-75
2022/10/01 07:59:07;;;;;;;15.82;8.98;;;;;;;;;;5105675;28;20502;-81
2022/10/01 08:01:32;;;;;;;9.05;6.82;;;;;;;;;;5112344;28;20073;-81
2022/10/01 08:03:57;;;;;;;11.98;9.20;;;;;;;;;;5104203;28;20019;-81
2022/10/01 08:06:23;;;;;;;13.43;9.75;;;;;;;;;;5106963;28;20120;-82
2022/10/01 08:08:49;;;;;;;19.50;13.32;;;;;;;;;;5106192;28;20082;-77
2022/10/01 08:11:16;;;;;;;23.05;15.40;;;;;;;;;;5110199;27;20031;-77
2022/10/01 08:13:44;;;;;;;16.30;10.57;;;;;;;;;;5091539;27;20035;-78
2022/10/01 08:16:10;;;;;;;10.13;9.02;;;;;;;;;;5106516;27;20027;-76
2022/10/01 08:18:36;;;;;;;11.18;10.05;;;;;;;;;;5109967;27;20035;-75
2022/10/01 08:21:02;;;;;;;8.25;7.20;;;;;;;;;;5107613;27;20079;-78
2022/10/01 08:23:29;;;;;;;11.20;10.10;;;;;;;;;;5109452;27;20103;-81
2022/10/01 08:26:05;;;;;;;10.13;8.88;;;;;;;;;;5093490;27;20069;-79
2022/10/01 08:28:31;;;;;;;11.13;6.30;;;;;;;;;;5111908;27;20098;-75
2022/10/01 08:30:56;;;;;;;6.80;6.10;;;;;;;;;;5111974;27;20050;-75
2022/10/01 08:33:22;;;;;;;8.50;7.70;;;;;;;;;;5112216;27;20046;-77
2022/10/01 08:35:48;;;;;;;6.90;4.90;;;;;;;;;;5113481;27;20026;-78
2022/10/01 08:38:13;;;;;;;5.70;4.70;;;;;;;;;;5113608;27;20366;-79
2022/10/01 08:40:44;;;;;;;6.53;5.18;;;;;;;;;;5113444;27;20029;-78
2022/10/01 08:43:13;;;;;;;7.70;5.28;;;;;;;;;;5114066;27;20015;-78
2022/10/01 08:45:41;;;;;;;9.93;5.53;;;;;;;;;;5103717;27;20050;-77
2022/10/01 08:48:08;;;;;;;7.05;6.05;;;;;;;;;;5116203;27;20154;-79
2022/10/01 08:50:56;;;;;;;7.28;5.93;;;;;;;;;;5116271;27;20092;-78
2022/10/01 08:53:41;;;;;;;10.02;6.28;;;;;;;;;;5109361;27;20027;-77
2022/10/01 08:56:16;;;;;;;8.45;6.25;;;;;;;;;;5058123;27;20039;-79
2022/10/01 08:58:44;;;;;;;10.23;8.48;;;;;;;;;;5116518;27;20023;-79
2022/10/01 09:01:10;;;;;;;10.43;9.43;;;;;;;;;;5111280;27;20133;-80
2022/10/01 09:03:36;;;;;;;11.85;6.70;;;;;;;;;;5111845;27;20027;-79
2022/10/01 09:06:04;;;;;;;8.98;6.72;;;;;;;;;;5114004;27;20031;-81
2022/10/01 09:08:44;;;;;;;9.25;6.18;;;;;;;;;;5116114;27;20029;-79
2022/10/01 09:11:28;;;;;;;7.32;6.53;;;;;;;;;;5116011;27;20024;-76
2022/10/01 09:14:04;;;;;;;8.18;5.00;;;;;;;;;;5110167;27;20031;-77
2022/10/01 09:16:37;;;;;;;8.25;4.45;;;;;;;;;;5114215;27;20366;-77
2022/10/01 09:19:09;;;;;;;8.30;5.40;;;;;;;;;;5103772;27;20451;-78
2022/10/01 09:21:40;;;;;;;6.53;4.38;;;;;;;;;;5112557;27;20106;-79
2022/10/01 09:24:14;;;;;;;7.25;4.95;;;;;;;;;;5110977;27;20037;-78
2022/10/01 09:26:42;;;;;;;7.28;4.28;;;;;;;;;;5110178;27;20087;-78
2022/10/01 09:29:12;;;;;;;8.43;5.15;;;;;;;;;;5115477;27;20387;-77
2022/10/01 09:31:43;;;;;;;7.75;4.43;;;;;;;;;;5113832;27;20113;-77
2022/10/01 09:34:09;;;;;;;4.45;3.65;;;;;;;;;;5112935;27;20015;-79
2022/10/01 09:36:34;;;;;;;6.95;4.85;;;;;;;;;;5116200;27;20493;-77
2022/10/01 09:39:12;;;;;;;62.60;49.63;;;;;;;;;;5113092;27;20447;-77
2022/10/01 09:41:37;;;;;;;26.88;18.13;;;;;;;;;;5116033;27;20438;-77
2022/10/01 09:44:03;;;;;;;12.30;8.95;;;;;;;;;;5112280;27;20024;-77
2022/10/01 09:46:28;;;;;;;14.40;10.20;;;;;;;;;;5113600;27;20054;-77
2022/10/01 09:49:00;;;;;;;15.27;10.63;;;;;;;;;;5111293;27;20056;-80
2022/10/01 09:51:25;;;;;;;13.70;9.85;;;;;;;;;;5113746;27;20036;-78
2022/10/01 09:54:00;;;;;;;10.07;8.30;;;;;;;;;;5117189;27;20037;-76
2022/10/01 09:56:46;;;;;;;13.30;9.48;;;;;;;;;;5113126;27;20031;-74
2022/10/01 09:59:34;;;;;;;7.97;6.57;;;;;;;;;;5118497;27;20034;-76
2022/10/01 10:02:00;;;;;;;10.68;7.65;;;;;;;;;;5115104;27;20459;-77
2022/10/01 10:04:26;;;;;;;13.23;8.82;;;;;;;;;;5107880;27;20089;-75
2022/10/01 10:06:58;;;;;;;14.05;8.95;;;;;;;;;;5115653;27;20036;-76
2022/10/01 10:09:28;;;;;;;17.00;10.43;;;;;;;;;;5115650;27;20031;-77
2022/10/01 10:11:55;;;;;;;;;;;;;;;;;;5115275;27;20092;-78
2022/10/01 10:14:27;;;;;;;9.00;7.55;;;;;;;;;;5111700;27;19908;-78
2022/10/01 10:16:53;;;;;;;15.65;10.55;;;;;;;;;;5109980;27;20076;-80
2022/10/01 10:19:26;;;;;;;12.88;10.00;;;;;;;;;;5111111;27;20055;-79
2022/10/01 10:22:21;;;;;;;8.98;6.85;;;;;;;;;;5117324;27;20084;-78
2022/10/01 10:24:46;;;;;;;9.50;6.32;;;;;;;;;;5106140;27;20067;-76
2022/10/01 10:27:24;;;;;;;7.07;6.47;;;;;;;;;;5106769;27;20061;-80
2022/10/01 10:29:59;;;;;;;32.22;19.38;;;;;;;;;;5098515;27;20024;-77
2022/10/01 10:32:27;;;;;;;84.18;46.05;;;;;;;;;;5108284;27;20042;-77
2022/10/01 10:34:54;;;;;;;70.25;45.30;;;;;;;;;;5115493;27;20992;-77
2022/10/01 10:37:24;;;;;;;27.88;20.77;;;;;;;;;;5115589;27;20106;-79
2022/10/01 10:39:51;;;;;;;28.20;22.25;;;;;;;;;;5114429;27;20016;-78
2022/10/01 10:42:17;;;;;;;29.98;21.02;;;;;;;;;;5112963;27;20449;-78
2022/10/01 10:44:45;;;;;;;20.17;15.48;;;;;;;;;;5104881;27;20351;-77
2022/10/01 10:47:13;;;;;;;24.08;16.77;;;;;;;;;;5100841;27;20035;-77
2022/10/01 10:49:43;;;;;;;25.20;18.38;;;;;;;;;;5102449;27;20031;-78
2022/10/01 10:52:16;;;;;;;30.40;22.63;;;;;;;;;;5106259;27;20035;-78
2022/10/01 10:54:45;;;;;;;19.83;11.93;;;;;;;;;;5108945;27;20021;-80
2022/10/01 10:57:20;;;;;;;18.08;14.07;;;;;;;;;;5107629;28;20022;-76
2022/10/01 10:59:58;;;;;;;19.92;13.02;;;;;;;;;;5106398;28;20540;-78
2022/10/01 11:02:24;;;;;;;17.23;10.80;;;;;;;;;;5089362;28;20039;-79
2022/10/01 11:04:51;;;;;;;26.73;13.35;;;;;;;;;;5102991;28;20023;-78
2022/10/01 11:07:21;;;;;;;21.05;12.45;;;;;;;;;;5100093;28;20043;-79
2022/10/01 11:10:13;;;;;;;12.65;10.30;;;;;;;;;;5097820;28;20020;-78
2022/10/01 11:12:50;;;;;;;9.32;6.70;;;;;;;;;;5090791;28;20031;-79
2022/10/01 11:15:26;;;;;;;11.25;7.35;;;;;;;;;;5097746;28;20027;-76
2022/10/01 11:18:09;;;;;;;9.80;8.77;;;;;;;;;;5101820;28;20031;-79
2022/10/01 11:20:35;;;;;;;10.57;9.48;;;;;;;;;;5106022;28;20469;-78
2022/10/01 11:23:15;;;;;;;9.57;8.15;;;;;;;;;;5092487;28;20024;-79
2022/10/01 11:25:43;;;;;;;9.40;8.40;;;;;;;;;;5107502;28;20024;-79
2022/10/01 11:28:47;;;;;;;8.68;7.53;;;;;;;;;;5112780;28;20034;-79
2022/10/01 11:31:16;;;;;;;9.80;8.88;;;;;;;;;;5086561;28;20552;-78
2022/10/01 11:34:00;;;;;;;10.77;7.68;;;;;;;;;;5103495;27;20077;-78
2022/10/01 11:36:28;;;;;;;10.98;9.18;;;;;;;;;;5079093;28;20027;-77
2022/10/01 11:38:56;;;;;;;20.70;16.05;;;;;;;;;;5096404;28;20019;-78
2022/10/01 11:41:37;;;;;;;37.08;26.33;;;;;;;;;;5096549;28;20321;-78
2022/10/01 11:44:20;;;;;;;93.03;60.65;;;;;;;;;;5097028;27;20491;-80
2022/10/01 11:46:54;;;;;;;32.70;24.75;;;;;;;;;;5100443;27;20486;-81
2022/10/01 11:49:23;;;;;;;25.55;19.42;;;;;;;;;;5089448;27;20454;-79
2022/10/01 11:52:01;;;;;;;12.85;11.45;;;;;;;;;;5100309;27;20035;-80
2022/10/01 11:54:27;;;;;;;12.00;9.88;;;;;;;;;;5082441;27;20031;-80
2022/10/01 11:59:52;;;;;;;26.77;23.35;;;;;;;;;;5045963;28;20037;-79
2022/10/01 12:02:22;;;;;;;16.42;13.93;;;;;;;;;;5047970;28;20140;-78
2022/10/01 12:04:59;;;;;;;25.45;19.05;;;;;;;;;;5050461;28;20032;-79
2022/10/01 12:07:28;;;;;;;17.77;13.63;;;;;;;;;;5054144;28;20123;-79
2022/10/01 12:09:54;;;;;;;16.52;13.05;;;;;;;;;;5060917;28;20047;-77
2022/10/01 12:12:21;;;;;;;18.02;12.75;;;;;;;;;;5061700;28;20043;-76
2022/10/01 12:14:49;;;;;;;14.43;10.73;;;;;;;;;;5061520;28;20032;-80
2022/10/01 12:17:19;;;;;;;10.80;9.57;;;;;;;;;;5050306;28;20047;-80
2022/10/01 12:19:47;;;;;;;8.27;7.22;;;;;;;;;;5047088;28;20024;-78
2022/10/01 12:22:24;;;;;;;12.43;8.88;;;;;;;;;;5047241;28;20037;-79
2022/10/01 12:24:50;;;;;;;22.92;14.15;;;;;;;;;;5047569;28;20028;-80
2022/10/01 12:27:17;;;;;;;35.80;19.58;;;;;;;;;;5061211;28;20101;-79
2022/10/01 12:29:45;;;;;;;21.00;13.65;;;;;;;;;;5060073;28;20111;-78
2022/10/01 12:32:12;;;;;;;12.05;8.68;;;;;;;;;;5060092;28;20160;-78
2022/10/01 12:34:46;;;;;;;9.68;6.68;;;;;;;;;;5044853;28;20033;-79
2022/10/01 12:37:32;;;;;;;13.13;10.32;;;;;;;;;;5094947;27;20023;-79
2022/10/01 12:39:57;;;;;;;25.70;14.40;;;;;;;;;;5115439;27;20019;-80
2022/10/01 12:42:22;;;;;;;37.00;19.45;;;;;;;;;;5113415;27;20031;-77
2022/10/01 12:44:48;;;;;;;51.70;35.53;;;;;;;;;;5113781;27;20051;-80
2022/10/01 12:47:23;;;;;;;16.15;11.75;;;;;;;;;;5115275;27;20039;-76
2022/10/01 12:49:48;;;;;;;12.70;8.10;;;;;;;;;;5110790;27;20007;-77
2022/10/01 12:52:16;;;;;;;12.70;8.15;;;;;;;;;;5115728;27;20030;-79
2022/10/01 12:54:42;;;;;;;13.02;8.70;;;;;;;;;;5114687;27;20019;-78
2022/10/01 12:57:27;;;;;;;14.70;11.98;;;;;;;;;;5114052;27;20031;-78
2022/10/01 13:00:02;;;;;;;15.50;10.93;;;;;;;;;;5112267;27;20110;-78
2022/10/01 13:02:27;;;;;;;20.75;13.88;;;;;;;;;;5112596;27;20027;-76
2022/10/01 13:04:55;;;;;;;31.30;23.17;;;;;;;;;;5096300;27;20482;-77
2022/10/01 13:07:21;;;;;;;34.67;27.23;;;;;;;;;;5111631;27;20043;-76
2022/10/01 13:10:04;;;;;;;67.32;42.72;;;;;;;;;;5110542;27;20465;-78
2022/10/01 13:12:48;;;;;;;52.95;33.17;;;;;;;;;;5114220;27;20030;-80
2022/10/01 13:15:19;;;;;;;33.38;25.10;;;;;;;;;;5105656;27;20071;-76
2022/10/01 13:17:58;;;;;;;17.67;13.93;;;;;;;;;;5100435;27;20107;-75
2022/10/01 13:20:31;;;;;;;19.30;14.88;;;;;;;;;;5101333;27;20015;-79
2022/10/01 13:23:19;;;;;;;12.40;10.38;;;;;;;;;;5109365;27;20104;-77
2022/10/01 13:25:47;;;;;;;56.47;49.63;;;;;;;;;;5064341;27;20677;-77
2022/10/01 13:28:16;;;;;;;71.68;63.92;;;;;;;;;;5096819;27;20458;-77
2022/10/01 13:30:47;;;;;;;40.40;36.07;;;;;;;;;;5098930;27;20538;-77
2022/10/01 13:33:24;;;;;;;25.02;21.63;;;;;;;;;;5097121;27;20019;-78
2022/10/01 13:35:55;;;;;;;23.27;19.60;;;;;;;;;;5101937;27;20034;-79
2022/10/01 13:38:29;;;;;;;16.13;14.48;;;;;;;;;;5100340;27;20507;-79
2022/10/01 13:41:02;;;;;;;25.58;21.88;;;;;;;;;;5099487;27;20165;-75
2022/10/01 13:43:28;;;;;;;19.55;17.55;;;;;;;;;;5100127;27;20019;-76
2022/10/01 13:45:55;;;;;;;17.55;15.50;;;;;;;;;;5103185;27;20043;-78
2022/10/01 13:48:22;;;;;;;22.42;19.75;;;;;;;;;;5109117;27;20338;-77
2022/10/01 13:50:54;;;;;;;16.17;12.23;;;;;;;;;;5116820;27;20019;-75
2022/10/01 13:53:21;;;;;;;16.08;10.80;;;;;;;;;;5116742;27;20146;-79
2022/10/01 13:55:47;;;;;;;10.88;9.70;;;;;;;;;;5114989;27;20011;-77
2022/10/01 13:58:28;;;;;;;9.05;8.15;;;;;;;;;;5107673;27;20088;-77
2022/10/01 14:00:55;;;;;;;9.93;8.07;;;;;;;;;;5103877;27;20019;-79
2022/10/01 14:03:36;;;;;;;9.75;7.65;;;;;;;;;;5107659;27;20023;-78
2022/10/01 14:06:03;;;;;;;16.23;11.02;;;;;;;;;;5112412;27;20452;-78
2022/10/01 14:08:47;;;;;;;19.38;15.57;;;;;;;;;;5107262;27;20027;-80
2022/10/01 14:16:55;;;;;;;13.98;9.65;;;;;;;;;;5100558;27;20469;-76
2022/10/01 14:19:22;;;;;;;9.98;7.90;;;;;;;;;;5093972;27;20030;-78
2022/10/01 14:21:58;;;;;;;19.52;11.82;;;;;;;;;;5097770;27;20109;-76
2022/10/01 14:24:23;;;;;;;24.92;21.17;;;;;;;;;;5101172;27;20032;-80
2022/10/01 14:27:12;;;;;;;19.35;15.52;;;;;;;;;;5100276;27;20404;-78
2022/10/01 14:29:37;;;;;;;56.65;42.40;;;;;;;;;;5091218;27;20128;-76
2022/10/01 14:32:09;;;;;;;75.43;53.90;;;;;;;;;;5097519;27;20028;-76
2022/10/01 14:34:34;;;;;;;126.88;85.85;;;;;;;;;;5101741;27;20447;-76
2022/10/01 14:36:59;;;;;;;31.95;25.20;;;;;;;;;;5080219;27;20052;-79
2022/10/01 14:39:28;;;;;;;26.55;21.33;;;;;;;;;;5094546;27;20312;-79
2022/10/01 14:41:55;;;;;;;10.85;8.98;;;;;;;;;;5100718;27;20039;-77
2022/10/01 14:44:27;;;;;;;85.55;63.35;;;;;;;;;;5080482;28;20596;-78
2022/10/01 14:46:53;;;;;;;93.15;70.90;;;;;;;;;;5101289;27;20462;-76